createdAt,value
2022-08-11T00:01:27.561Z,101430.41
2022-08-11T00:03:58.282Z,101422.97
2022-08-11T00:06:37.164Z,101420.47
2022-08-11T00:09:09.335Z,101425.34
2022-08-11T00:11:40.914Z,101432.31
2022-08-11T00:14:37.130Z,101433.59
2022-08-11T00:17:14.418Z,101442.69
2022-08-11T00:20:12.273Z,101446.69
2022-08-11T00:22:34.876Z,101428.50
2022-08-11T00:25:28.565Z,101440.16
2022-08-11T00:27:55.450Z,101432.09
2022-08-11T00:30:22.584Z,101428.28
2022-08-11T00:32:59.093Z,101423.63
2022-08-11T00:35:53.702Z,101421.31
2022-08-11T00:38:26.118Z,101425.97
2022-08-11T00:41:05.150Z,101424.47
2022-08-11T00:44:22.948Z,101417.91
2022-08-11T00:47:11.546Z,101421.91
2022-08-11T00:50:09.296Z,101415.75
2022-08-11T00:52:51.289Z,101415.09
2022-08-11T00:55:58.800Z,101415.31
2022-08-11T00:58:43.902Z,101412.09
2022-08-11T01:01:17.891Z,101413.41
2022-08-11T01:04:11.604Z,101408.28
2022-08-11T01:06:50.355Z,101408.28
2022-08-11T01:09:53.158Z,101411.84
2022-08-11T01:12:28.603Z,101407.59
2022-08-11T01:15:25.990Z,101404.41
2022-08-11T01:18:29.953Z,101400.59
2022-08-11T01:21:36.925Z,101391.06
2022-08-11T01:24:51.505Z,101401.34
2022-08-11T01:27:45.181Z,101406.66
2022-08-11T01:30:37.503Z,101405.16
2022-08-11T01:33:34.930Z,101399.38
2022-08-11T01:36:10.876Z,101402.28
2022-08-11T01:39:11.203Z,101396.72
2022-08-11T01:42:34.081Z,101404.69
2022-08-11T01:45:50.250Z,101396.25
2022-08-11T01:48:30.154Z,101397.44
2022-08-11T01:51:47.116Z,101392.34
2022-08-11T01:55:02.531Z,101393.59
2022-08-11T01:57:44.827Z,101402.22
2022-08-11T02:00:20.261Z,101400.28
2022-08-11T02:03:07.013Z,101393.72
2022-08-11T02:06:01.628Z,101394.16
2022-08-11T02:08:50.364Z,101386.94
2022-08-11T02:11:35.861Z,101403.50
2022-08-11T02:15:05.168Z,101394.81
2022-08-11T02:17:49.421Z,101398.66
2022-08-11T02:20:49.497Z,101386.03
2022-08-11T02:24:04.319Z,101391.63
2022-08-11T02:26:42.494Z,101395.94
2022-08-11T02:29:46.212Z,101396.09
2022-08-11T02:32:39.532Z,101393.47
2022-08-11T02:35:28.928Z,101391.47
2022-08-11T02:37:58.556Z,101389.75
2022-08-11T02:40:46.059Z,101390.16
2022-08-11T02:43:31.957Z,101390.16
2022-08-11T02:46:19.364Z,101382.69
2022-08-11T02:49:23.137Z,101387.31
2022-08-11T02:52:17.904Z,101396.38
2022-08-11T02:55:56.191Z,101402.63
2022-08-11T02:58:22.024Z,101392.28
2022-08-11T03:01:07.041Z,101386.72
2022-08-11T03:03:53.124Z,101393.44
2022-08-11T03:06:31.629Z,101394.88
2022-08-11T03:09:19.583Z,101402.63
2022-08-11T03:12:21.056Z,101404.53
2022-08-11T03:15:31.256Z,101397.06
2022-08-11T03:18:25.529Z,101398.03
2022-08-11T03:21:06.949Z,101400.06
2022-08-11T03:23:50.247Z,101401.06
2022-08-11T03:26:33.724Z,101398.72
2022-08-11T03:29:25.193Z,101400.78
2022-08-11T03:33:31.162Z,101395.72
2022-08-11T03:36:57.606Z,101411.19
2022-08-11T03:39:32.476Z,101398.00
2022-08-11T03:42:27.401Z,101392.25
2022-08-11T03:45:28.818Z,101402.81
2022-08-11T03:48:39.638Z,101393.78
2022-08-11T03:51:25.542Z,101397.06
2022-08-11T03:54:19.607Z,101398.66
2022-08-11T03:57:21.528Z,101398.19
2022-08-11T04:00:14.895Z,101398.66
2022-08-11T04:03:31.210Z,101393.50
2022-08-11T04:06:32.251Z,101392.16
2022-08-11T04:09:59.036Z,101394.50
2022-08-11T04:12:58.704Z,101394.88
2022-08-11T04:16:16.540Z,101396.09
2022-08-11T04:18:52.596Z,101396.09
2022-08-11T04:22:15.650Z,101395.44
2022-08-11T04:25:25.221Z,101397.28
2022-08-11T04:28:29.746Z,101392.47
2022-08-11T04:31:14.710Z,101400.50
2022-08-11T04:34:28.876Z,101404.56
2022-08-11T04:37:36.406Z,101399.09
2022-08-11T04:40:39.621Z,101397.06
2022-08-11T04:44:17.663Z,101397.03
2022-08-11T04:48:01.898Z,101387.34
2022-08-11T04:51:40.578Z,101387.69
2022-08-11T04:55:24.587Z,101391.84
2022-08-11T04:58:57.304Z,101391.09
2022-08-11T05:01:56.127Z,101397.91
2022-08-11T05:04:50.597Z,101387.25
2022-08-11T05:08:04.137Z,101390.38
2022-08-11T05:11:15.339Z,101388.97
2022-08-11T05:14:04.179Z,101395.94
2022-08-11T05:17:12.834Z,101394.06
2022-08-11T05:20:04.177Z,101390.19
2022-08-11T05:22:50.812Z,101393.16
2022-08-11T05:26:46.877Z,101399.75
2022-08-11T05:29:08.271Z,101398.72
2022-08-11T05:32:15.769Z,101401.69
2022-08-11T05:34:55.440Z,101398.63
2022-08-11T05:37:33.326Z,101404.81
2022-08-11T05:40:31.933Z,101406.69
2022-08-11T05:43:32.267Z,101406.81
2022-08-11T05:46:25.834Z,101411.88
2022-08-11T05:49:12.137Z,101406.53
2022-08-11T05:52:04.929Z,101407.38
2022-08-11T05:54:54.314Z,101400.50
2022-08-11T05:57:39.532Z,101405.22
2022-08-11T06:00:15.452Z,101401.22
2022-08-11T06:02:45.116Z,101403.72
2022-08-11T06:05:14.104Z,101406.03
2022-08-11T06:07:47.181Z,101394.41
2022-08-11T06:10:38.516Z,101405.22
2022-08-11T06:13:08.083Z,101397.69
2022-08-11T06:15:46.003Z,101397.16
2022-08-11T06:18:14.467Z,101397.69
2022-08-11T06:20:52.583Z,101405.31
2022-08-11T06:23:25.766Z,101397.03
2022-08-11T06:25:56.126Z,101406.56
2022-08-11T06:28:36.691Z,101396.16
2022-08-11T06:31:17.772Z,101395.38
2022-08-11T06:33:50.755Z,101401.28
2022-08-11T06:36:38.804Z,101398.84
2022-08-11T06:39:39.305Z,101394.38
2022-08-11T06:42:13.716Z,101400.94
2022-08-11T06:44:45.041Z,101399.13
2022-08-11T06:47:16.252Z,101396.03
2022-08-11T06:50:07.157Z,101401.44
2022-08-11T06:52:37.088Z,101386.50
2022-08-11T06:55:57.639Z,101395.41
2022-08-11T06:58:50.762Z,101388.28
2022-08-11T07:01:38.623Z,101385.13
2022-08-11T07:04:09.637Z,101390.31
2022-08-11T07:07:35.910Z,101389.97
2022-08-11T07:10:47.292Z,101389.63
2022-08-11T07:13:44.383Z,101401.75
2022-08-11T07:16:26.437Z,101402.56
2022-08-11T07:19:20.385Z,101395.66
2022-08-11T07:22:07.527Z,101394.31
2022-08-11T07:25:03.535Z,101390.47
2022-08-11T07:28:01.841Z,101387.22
2022-08-11T07:30:30.460Z,101390.69
2022-08-11T07:33:01.471Z,101381.84
2022-08-11T07:35:39.920Z,101389.59
2022-08-11T07:38:18.169Z,101388.59
2022-08-11T07:40:50.029Z,101392.19
2022-08-11T07:43:17.398Z,101389.72
2022-08-11T07:46:05.390Z,101393.78
2022-08-11T07:48:52.565Z,101390.53
2022-08-11T07:51:41.415Z,101393.56
2022-08-11T07:54:16.797Z,101391.53
2022-08-11T07:56:54.850Z,101379.84
2022-08-11T07:59:59.911Z,101395.16
2022-08-11T08:02:50.875Z,101389.84
2022-08-11T08:05:37.588Z,101389.06
2022-08-11T08:08:24.521Z,101385.44
2022-08-11T08:11:11.313Z,101385.13
2022-08-11T08:13:57.382Z,101379.00
2022-08-11T08:16:43.624Z,101385.63
2022-08-11T08:19:16.628Z,101379.69
2022-08-11T08:21:45.859Z,101386.00
2022-08-11T08:24:14.312Z,101376.16
2022-08-11T08:26:59.220Z,101376.84
2022-08-11T08:30:07.998Z,101373.38
2022-08-11T08:32:40.057Z,101373.78
2022-08-11T08:35:10.842Z,101374.75
2022-08-11T08:37:45.614Z,101365.16
2022-08-11T08:40:14.902Z,101366.88
2022-08-11T08:42:56.721Z,101363.88
2022-08-11T08:45:27.472Z,101358.06
2022-08-11T08:48:06.342Z,101368.69
2022-08-11T08:50:55.657Z,101370.41
2022-08-11T08:53:31.155Z,101356.22
2022-08-11T08:56:01.564Z,101367.63
2022-08-11T08:58:30.817Z,101362.06
2022-08-11T09:01:00.690Z,101362.91
2022-08-11T09:04:05.240Z,101356.22
2022-08-11T09:06:17.361Z,101357.06
2022-08-11T09:08:46.056Z,101354.50
2022-08-11T09:11:35.355Z,101356.47
2022-08-11T09:14:05.601Z,101349.53
2022-08-11T09:16:35.160Z,101344.22
2022-08-11T09:19:03.274Z,101348.13
2022-08-11T09:21:44.573Z,101339.44
2022-08-11T09:24:36.642Z,101342.22
2022-08-11T09:27:07.820Z,101342.50
2022-08-11T09:29:36.122Z,101347.53
2022-08-11T09:32:03.505Z,101343.88
2022-08-11T09:34:31.240Z,101344.97
2022-08-11T09:37:54.877Z,101344.13
2022-08-11T09:40:27.265Z,101340.22
2022-08-11T09:43:15.789Z,101339.69
2022-08-11T09:45:51.690Z,101338.88
2022-08-11T09:48:24.664Z,101332.75
2022-08-11T09:50:56.068Z,101334.69
2022-08-11T09:53:35.811Z,101338.31
2022-08-11T09:56:29.001Z,101335.81
2022-08-11T09:58:56.109Z,101330.22
2022-08-11T10:01:30.417Z,101324.09
2022-08-11T10:04:07.832Z,101327.69
2022-08-11T10:06:56.597Z,101321.56
2022-08-11T10:09:25.792Z,101321.78
2022-08-11T10:11:59.646Z,101318.44
2022-08-11T10:14:47.016Z,101309.19
2022-08-11T10:17:17.201Z,101319.50
2022-08-11T10:20:04.124Z,101315.00
2022-08-11T10:22:53.160Z,101312.75
2022-08-11T10:25:40.562Z,101313.31
2022-08-11T10:28:33.015Z,101301.28
2022-08-11T10:31:16.898Z,101299.28
2022-08-11T10:34:01.757Z,101297.59
2022-08-11T10:36:45.267Z,101293.38
2022-08-11T10:39:18.031Z,101294.25
2022-08-11T10:42:09.592Z,101289.94
2022-08-11T10:44:46.368Z,101293.00
2022-08-11T10:47:34.561Z,101285.78
2022-08-11T10:50:30.679Z,101291.63
2022-08-11T10:53:18.827Z,101290.22
2022-08-11T10:56:06.137Z,101286.88
2022-08-11T10:58:52.326Z,101281.03
2022-08-11T11:01:29.242Z,101278.53
2022-08-11T11:04:05.941Z,101280.75
2022-08-11T11:06:35.265Z,101274.84
2022-08-11T11:09:13.714Z,101279.63
2022-08-11T11:12:08.485Z,101270.97
2022-08-11T11:14:58.990Z,101279.03
2022-08-11T11:18:09.575Z,101283.47
2022-08-11T11:20:50.952Z,101267.53
2022-08-11T11:23:47.500Z,101265.00
2022-08-11T11:26:32.350Z,101264.34
2022-08-11T11:29:30.123Z,101265.16
2022-08-11T11:32:19.131Z,101263.16
2022-08-11T11:35:26.855Z,101264.22
2022-08-11T11:38:03.439Z,101261.28
2022-08-11T11:40:33.282Z,101261.28
2022-08-11T11:43:01.575Z,101265.47
2022-08-11T11:45:29.019Z,101267.38
2022-08-11T11:47:59.737Z,101263.69
2022-08-11T11:50:32.911Z,101255.00
2022-08-11T11:53:04.545Z,101256.59
2022-08-11T11:55:32.133Z,101256.03
2022-08-11T11:58:23.244Z,101254.88
2022-08-11T12:01:11.601Z,101251.16
2022-08-11T12:03:40.865Z,101251.38
2022-08-11T12:06:09.798Z,101259.13
2022-08-11T12:08:38.043Z,101252.34
2022-08-11T12:11:28.685Z,101246.16
2022-08-11T12:13:59.786Z,101244.03
2022-08-11T12:16:35.698Z,101247.34
2022-08-11T12:19:13.665Z,101236.44
2022-08-11T12:22:01.249Z,101227.19
2022-08-11T12:24:49.284Z,101219.56
2022-08-11T12:27:25.306Z,101221.25
2022-08-11T12:30:08.709Z,101224.63
2022-08-11T12:32:39.246Z,101220.16
2022-08-11T12:35:08.157Z,101224.09
2022-08-11T12:37:45.704Z,101212.31
2022-08-11T12:41:03.599Z,101214.50
2022-08-11T12:43:56.894Z,101202.00
2022-08-11T12:46:33.495Z,101211.47
2022-08-11T12:49:45.503Z,101207.59
2022-08-11T12:52:25.926Z,101200.19
2022-08-11T12:55:34.346Z,101200.13
2022-08-11T12:58:17.382Z,101193.00
2022-08-11T13:01:04.530Z,101190.50
2022-08-11T13:03:56.720Z,101188.75
2022-08-11T13:06:25.641Z,101181.09
2022-08-11T13:08:55.753Z,101180.56
2022-08-11T13:11:55.584Z,101181.78
2022-08-11T13:14:26.337Z,101180.56
2022-08-11T13:17:12.457Z,101164.13
2022-08-11T13:19:47.489Z,101179.28
2022-08-11T13:22:19.328Z,101175.03
2022-08-11T13:24:46.786Z,101169.66
2022-08-11T13:27:18.052Z,101169.13
2022-08-11T13:29:47.003Z,101167.06
2022-08-11T13:32:16.488Z,101165.94
2022-08-11T13:34:44.508Z,101169.00
2022-08-11T13:37:14.509Z,101152.69
2022-08-11T13:39:48.566Z,101147.84
2022-08-11T13:42:20.327Z,101149.78
2022-08-11T13:44:48.459Z,101145.78
2022-08-11T13:47:16.587Z,101155.31
2022-08-11T13:49:45.189Z,101158.22
2022-08-11T13:52:17.178Z,101157.59
2022-08-11T13:54:48.499Z,101146.91
2022-08-11T13:58:09.115Z,101154.50
2022-08-11T14:00:24.936Z,101149.94
2022-08-11T14:02:57.425Z,101142.34
2022-08-11T14:05:40.655Z,101148.19
2022-08-11T14:08:37.836Z,101153.03
2022-08-11T14:12:21.297Z,101146.19
2022-08-11T14:14:23.305Z,101133.03
2022-08-11T14:16:52.501Z,101140.59
2022-08-11T14:19:23.558Z,101138.84
2022-08-11T14:22:08.305Z,101133.25
2022-08-11T14:24:44.510Z,101134.38
2022-08-11T14:28:30.354Z,101128.75
2022-08-11T14:30:01.606Z,101129.69
2022-08-11T14:32:28.657Z,101124.19
2022-08-11T14:34:55.970Z,101122.97
2022-08-11T14:37:25.783Z,101116.75
2022-08-11T14:40:21.529Z,101106.13
2022-08-11T14:43:07.556Z,101104.28
2022-08-11T14:45:57.430Z,101097.84
2022-08-11T14:48:26.996Z,101098.66
2022-08-11T14:50:54.300Z,101099.19
2022-08-11T14:53:23.194Z,101098.34
2022-08-11T14:56:10.180Z,101100.34
2022-08-11T14:58:39.769Z,101090.97
2022-08-11T15:01:26.696Z,101103.06
2022-08-11T15:04:34.124Z,101094.31
2022-08-11T15:06:43.179Z,101090.06
2022-08-11T15:09:10.278Z,101084.44
2022-08-11T15:11:55.888Z,101084.16
2022-08-11T15:14:42.269Z,101086.22
2022-08-11T15:17:10.729Z,101087.44
2022-08-11T15:20:00.968Z,101075.16
2022-08-11T15:22:46.809Z,101076.00
2022-08-11T15:25:14.036Z,101074.03
2022-08-11T15:28:01.768Z,101077.47
2022-08-11T15:30:49.073Z,101074.66
2022-08-11T15:33:37.372Z,101070.19
2022-08-11T15:36:27.104Z,101065.50
2022-08-11T15:39:21.003Z,101066.84
2022-08-11T15:42:32.379Z,101064.59
2022-08-11T15:45:22.346Z,101055.00
2022-08-11T15:48:00.667Z,101052.00
2022-08-11T15:50:40.460Z,101053.16
2022-08-11T15:53:20.056Z,101057.19
2022-08-11T15:55:49.052Z,101057.69
2022-08-11T15:58:37.914Z,101057.38
2022-08-11T16:01:24.740Z,101054.38
2022-08-11T16:04:14.185Z,101049.56
2022-08-11T16:06:51.898Z,101052.38
2022-08-11T16:09:39.727Z,101048.75
2022-08-11T16:12:28.478Z,101054.88
2022-08-11T16:15:20.733Z,101045.44
2022-08-11T16:17:53.188Z,101047.72
2022-08-11T16:20:27.104Z,101042.09
2022-08-11T16:23:02.571Z,101047.19
2022-08-11T16:27:01.315Z,101036.56
2022-08-11T16:28:25.593Z,101042.50
2022-08-11T16:30:54.260Z,101040.53
2022-08-11T16:33:49.441Z,101039.25
2022-08-11T16:36:32.092Z,101034.75
2022-08-11T16:39:02.138Z,101030.84
2022-08-11T16:41:52.500Z,101030.63
2022-08-11T16:44:39.510Z,101026.06
2022-08-11T16:47:11.233Z,101023.84
2022-08-11T16:49:47.167Z,101022.50
2022-08-11T16:52:22.107Z,101011.59
2022-08-11T16:54:49.703Z,101022.28
2022-08-11T16:57:43.929Z,101022.91
2022-08-11T17:00:15.124Z,101024.94
2022-08-11T17:03:12.153Z,101020.59
2022-08-11T17:06:04.945Z,101016.97
2022-08-11T17:09:26.305Z,101013.09
2022-08-11T17:12:15.551Z,101011.44
2022-08-11T17:14:50.285Z,101008.72
2022-08-11T17:17:26.682Z,101009.63
2022-08-11T17:20:41.983Z,101002.69
2022-08-11T17:23:13.396Z,101006.09
2022-08-11T17:26:03.525Z,101001.69
2022-08-11T17:28:29.968Z,100996.97
2022-08-11T17:31:18.512Z,100991.16
2022-08-11T17:34:09.869Z,100987.00
2022-08-11T17:36:41.568Z,100994.34
2022-08-11T17:39:13.656Z,100992.44
2022-08-11T17:42:00.187Z,100992.56
2022-08-11T17:44:47.832Z,101000.72
2022-08-11T17:47:35.146Z,100994.91
2022-08-11T17:50:09.440Z,100993.84
2022-08-11T17:53:05.636Z,101002.00
2022-08-11T17:55:54.583Z,100992.84
2022-08-11T17:58:42.014Z,100995.72
2022-08-11T18:01:12.173Z,100992.16
2022-08-11T18:03:42.033Z,100995.84
2022-08-11T18:06:21.457Z,100995.69
2022-08-11T18:09:33.677Z,100991.81
2022-08-11T18:12:21.950Z,100996.66
2022-08-11T18:15:13.145Z,100989.47
2022-08-11T18:18:00.150Z,100989.53
2022-08-11T18:20:46.677Z,100999.94
2022-08-11T18:23:41.911Z,100996.97
2022-08-11T18:26:38.770Z,100999.31
2022-08-11T18:29:26.916Z,100999.91
2022-08-11T18:32:20.798Z,100999.75
2022-08-11T18:35:11.178Z,100997.56
2022-08-11T18:38:02.755Z,100997.41
2022-08-11T18:40:49.521Z,101000.56
2022-08-11T18:43:40.348Z,100996.44
2022-08-11T18:46:29.088Z,100995.38
2022-08-11T18:50:02.353Z,100997.47
2022-08-11T18:52:36.781Z,100997.25
2022-08-11T18:55:26.976Z,101004.56
2022-08-11T18:58:14.990Z,101009.66
2022-08-11T19:01:04.481Z,101013.34
2022-08-11T19:03:50.893Z,101005.59
2022-08-11T19:06:42.443Z,101004.78
2022-08-11T19:09:34.199Z,101010.16
2022-08-11T19:12:23.345Z,101011.03
2022-08-11T19:15:10.754Z,101008.31
2022-08-11T19:18:01.641Z,101004.72
2022-08-11T19:20:50.662Z,101010.06
2022-08-11T19:23:46.766Z,101014.25
2022-08-11T19:26:34.151Z,101014.28
2022-08-11T19:30:04.833Z,101019.06
2022-08-11T19:32:30.012Z,101026.88
2022-08-11T19:35:18.079Z,101024.97
2022-08-11T19:38:04.374Z,101018.88
2022-08-11T19:40:51.617Z,101032.19
2022-08-11T19:43:38.093Z,101038.06
2022-08-11T19:46:24.881Z,101035.81
2022-08-11T19:49:14.767Z,101037.19
2022-08-11T19:52:02.805Z,101044.94
2022-08-11T19:54:53.778Z,101048.53
2022-08-11T19:57:43.208Z,101046.81
2022-08-11T20:00:40.694Z,101049.53
2022-08-11T20:03:30.091Z,101056.75
2022-08-11T20:06:21.434Z,101053.91
2022-08-11T20:09:09.151Z,101054.94
2022-08-11T20:11:58.742Z,101055.41
2022-08-11T20:14:50.281Z,101060.06
2022-08-11T20:17:37.882Z,101056.41
2022-08-11T20:20:26.548Z,101059.09
2022-08-11T20:23:14.815Z,101065.09
2022-08-11T20:26:14.128Z,101065.25
2022-08-11T20:29:09.338Z,101066.28
2022-08-11T20:31:56.458Z,101076.50
2022-08-11T20:34:42.779Z,101070.25
2022-08-11T20:37:30.577Z,101070.19
2022-08-11T20:40:22.527Z,101073.44
2022-08-11T20:43:09.671Z,101084.41
2022-08-11T20:46:15.932Z,101082.00
2022-08-11T20:49:04.090Z,101077.44
2022-08-11T20:51:50.246Z,101084.28
2022-08-11T20:54:43.874Z,101081.38
2022-08-11T20:58:00.097Z,101080.41
2022-08-11T21:00:44.141Z,101082.47
2022-08-11T21:03:35.687Z,101086.16
2022-08-11T21:06:31.619Z,101095.41
2022-08-11T21:09:58.434Z,101093.06
2022-08-11T21:12:30.230Z,101100.22
2022-08-11T21:15:38.815Z,101102.81
2022-08-11T21:18:28.452Z,101099.97
2022-08-11T21:21:18.313Z,101102.88
2022-08-11T21:24:07.676Z,101116.91
2022-08-11T21:27:01.551Z,101115.41
2022-08-11T21:29:51.825Z,101105.59
2022-08-11T21:32:38.747Z,101102.47
2022-08-11T21:35:26.720Z,101107.78
2022-08-11T21:38:12.630Z,101112.91
2022-08-11T21:41:00.889Z,101102.22
2022-08-11T21:43:50.543Z,101107.66
2022-08-11T21:46:39.917Z,101115.28
2022-08-11T21:49:27.869Z,101116.28
2022-08-11T21:52:13.556Z,101115.06
2022-08-11T21:55:00.620Z,101117.22
2022-08-11T21:57:48.159Z,101125.94
2022-08-11T22:00:36.489Z,101122.22
2022-08-11T22:03:23.686Z,101127.50
2022-08-11T22:06:12.482Z,101132.22
2022-08-11T22:08:58.370Z,101134.41
2022-08-11T22:11:44.442Z,101136.31
2022-08-11T22:14:29.770Z,101139.81
2022-08-11T22:17:15.237Z,101133.81
2022-08-11T22:20:01.341Z,101145.22
2022-08-11T22:22:53.181Z,101147.88
2022-08-11T22:25:54.255Z,101148.22
2022-08-11T22:28:40.799Z,101145.47
2022-08-11T22:31:27.270Z,101153.22
2022-08-11T22:34:12.922Z,101157.66
2022-08-11T22:37:00.753Z,101158.72
2022-08-11T22:40:01.945Z,101161.72
2022-08-11T22:42:51.096Z,101165.06
2022-08-11T22:45:37.814Z,101157.84
2022-08-11T22:48:25.342Z,101159.53
2022-08-11T22:51:12.974Z,101168.88
2022-08-11T22:53:59.885Z,101159.63
2022-08-11T22:56:50.693Z,101163.56
2022-08-11T22:59:38.486Z,101164.88
2022-08-11T23:02:25.601Z,101164.50
2022-08-11T23:05:12.310Z,101162.00
2022-08-11T23:07:58.314Z,101166.53
2022-08-11T23:10:45.788Z,101172.75
2022-08-11T23:13:32.169Z,101178.97
2022-08-11T23:16:18.635Z,101174.16
2022-08-11T23:19:04.929Z,101181.44
2022-08-11T23:21:50.993Z,101183.00
2022-08-11T23:24:38.829Z,101186.16
2022-08-11T23:27:27.256Z,101182.41
2022-08-11T23:30:18.683Z,101183.97
2022-08-11T23:33:17.460Z,101190.19
2022-08-11T23:36:08.417Z,101178.78
2022-08-11T23:38:55.268Z,101181.38
2022-08-11T23:41:41.094Z,101181.44
2022-08-11T23:44:27.713Z,101180.22
2022-08-11T23:47:18.520Z,101182.97
2022-08-11T23:50:06.181Z,101173.97
2022-08-11T23:52:53.968Z,101177.38
2022-08-11T23:55:40.292Z,101169.34
2022-08-11T23:58:26.797Z,101170.28
